Time;durP1;ratioP1;P1;durP2;ratioP2;P2;SDS_P1;SDS_P2;PMS_P1;PMS_P2;Temp;Humidity;BMP_temperature;BMP_pressure;BME280_temperature;BME280_humidity;BME280_pressure;Samples;Min_cycle;Max_cycle;Signal;HPM_P1;HPM_P2
2022/03/16 00:01:54;;;;;;;19.98;12.93;;;7.90;99.90;;;;;;6106195;23;20009;-83
2022/03/16 00:04:19;;;;;;;19.17;13.02;;;7.90;99.90;;;;;;6158190;23;20013;-83
2022/03/16 00:06:45;;;;;;;24.52;13.52;;;7.80;99.90;;;;;;6155756;23;20084;-83
2022/03/16 00:09:11;;;;;;;20.08;13.07;;;7.80;99.90;;;;;;6106226;23;20006;-83
2022/03/16 00:11:36;;;;;;;22.95;13.70;;;7.80;99.90;;;;;;6105989;23;20076;-83
2022/03/16 00:14:02;;;;;;;19.63;12.48;;;7.80;99.90;;;;;;6106063;23;20420;-82
2022/03/16 00:16:28;;;;;;;20.80;13.57;;;7.70;99.90;;;;;;6153001;23;20404;-83
2022/03/16 00:18:54;;;;;;;21.35;13.05;;;7.70;99.90;;;;;;6104600;23;20337;-83
2022/03/16 00:21:19;;;;;;;22.15;13.65;;;7.70;99.90;;;;;;6156832;23;20006;-83
2022/03/16 00:23:45;;;;;;;19.20;12.80;;;7.70;99.90;;;;;;6155045;23;20084;-83
2022/03/16 00:26:11;;;;;;;19.92;13.93;;;7.70;99.90;;;;;;6130580;23;20002;-83
2022/03/16 00:28:36;;;;;;;26.75;14.38;;;7.60;99.90;;;;;;6130504;23;20108;-83
2022/03/16 00:31:03;;;;;;;19.42;13.35;;;7.60;99.90;;;;;;6155281;23;20017;-82
2022/03/16 00:33:28;;;;;;;21.08;13.23;;;7.60;99.90;;;;;;6105965;23;20065;-83
2022/03/16 00:35:54;;;;;;;20.88;13.82;;;7.60;99.90;;;;;;6130464;23;20002;-82
2022/03/16 00:38:20;;;;;;;20.55;13.25;;;7.50;99.90;;;;;;6154891;23;20013;-83
2022/03/16 00:40:45;;;;;;;22.42;13.90;;;7.50;99.90;;;;;;6082171;23;20096;-83
2022/03/16 00:43:13;;;;;;;20.98;13.98;;;7.50;99.90;;;;;;6130672;23;20025;-83
2022/03/16 00:45:39;;;;;;;20.73;13.25;;;7.50;99.90;;;;;;6130390;23;20424;-83
2022/03/16 00:48:04;;;;;;;18.90;13.18;;;7.50;99.90;;;;;;6156519;23;20009;-83
2022/03/16 00:50:32;;;;;;;21.60;14.43;;;7.50;99.90;;;;;;6081239;23;20054;-83
2022/03/16 00:52:57;;;;;;;18.95;13.57;;;7.50;99.90;;;;;;6082467;23;20432;-83
2022/03/16 00:55:23;;;;;;;20.38;13.63;;;7.50;99.90;;;;;;6105849;23;20001;-83
2022/03/16 00:57:49;;;;;;;22.10;14.00;;;7.40;99.90;;;;;;6081918;23;20539;-83
2022/03/16 01:00:14;;;;;;;24.48;14.75;;;7.40;99.90;;;;;;6130218;23;20010;-83
2022/03/16 01:02:40;;;;;;;22.80;14.10;;;7.40;99.90;;;;;;6131044;23;20475;-83
2022/03/16 01:05:06;;;;;;;21.92;14.20;;;7.30;99.90;;;;;;6130039;23;20013;-84
2022/03/16 01:07:32;;;;;;;20.05;13.50;;;7.30;99.90;;;;;;6082049;23;20005;-83
2022/03/16 01:09:58;;;;;;;20.50;14.05;;;7.30;99.90;;;;;;6130218;23;20010;-83
2022/03/16 01:12:23;;;;;;;22.08;15.02;;;7.30;99.90;;;;;;6129144;23;20008;-82
2022/03/16 01:14:49;;;;;;;25.25;15.90;;;7.30;99.90;;;;;;6127988;23;20012;-84
2022/03/16 01:17:15;;;;;;;22.40;14.70;;;7.30;99.90;;;;;;6128917;23;20336;-84
2022/03/16 01:19:41;;;;;;;24.58;15.90;;;7.30;99.90;;;;;;6154469;23;20437;-83
2022/03/16 01:22:07;;;;;;;26.00;15.68;;;7.20;99.90;;;;;;6080875;23;20424;-84
2022/03/16 01:24:33;;;;;;;24.95;15.95;;;7.20;99.90;;;;;;6128786;23;20005;-83
2022/03/16 01:26:59;;;;;;;26.30;16.55;;;7.20;99.90;;;;;;6130199;23;20005;-83
2022/03/16 01:29:24;;;;;;;26.23;16.40;;;7.20;99.90;;;;;;6129713;23;20037;-83
2022/03/16 01:31:52;;;;;;;22.02;15.70;;;7.20;99.90;;;;;;6130311;23;20001;-83
2022/03/16 01:34:18;;;;;;;22.55;16.45;;;7.20;99.90;;;;;;6156039;23;20006;-84
2022/03/16 01:36:44;;;;;;;20.60;15.32;;;7.20;99.90;;;;;;6155828;23;20367;-84
2022/03/16 01:39:09;;;;;;;22.92;15.82;;;7.10;99.90;;;;;;6156295;23;20057;-83
2022/03/16 01:41:35;;;;;;;23.52;16.10;;;7.10;99.90;;;;;;6105794;23;20037;-84
2022/03/16 01:44:02;;;;;;;27.40;16.05;;;7.10;99.90;;;;;;6106285;23;20006;-84
2022/03/16 01:46:27;;;;;;;24.48;15.20;;;7.10;99.90;;;;;;6107290;23;20006;-84
2022/03/16 01:48:53;;;;;;;23.67;16.40;;;7.10;99.90;;;;;;6106198;23;20013;-83
2022/03/16 01:51:20;;;;;;;25.30;16.40;;;7.10;99.90;;;;;;6182522;23;19998;-83
2022/03/16 01:53:46;;;;;;;25.17;16.60;;;7.10;99.90;;;;;;6157165;23;19989;-83
2022/03/16 01:56:14;;;;;;;27.15;16.83;;;7.00;99.90;;;;;;6182813;23;19985;-84
2022/03/16 01:58:39;;;;;;;25.98;15.82;;;7.00;99.90;;;;;;6182793;23;20001;-84
2022/03/16 02:01:05;;;;;;;25.95;15.70;;;7.10;99.90;;;;;;6157581;23;19989;-84
2022/03/16 02:03:31;;;;;;;23.48;15.23;;;7.00;99.90;;;;;;6181616;23;19988;-86
2022/03/16 02:05:57;;;;;;;20.50;14.90;;;7.00;99.90;;;;;;6175203;23;20009;-83
2022/03/16 02:08:22;;;;;;;24.23;14.43;;;7.00;99.90;;;;;;6130725;23;19994;-83
2022/03/16 02:10:48;;;;;;;23.50;14.25;;;7.00;99.90;;;;;;6156040;23;20421;-83
2022/03/16 02:13:13;;;;;;;21.83;14.77;;;6.90;99.90;;;;;;6083426;23;20420;-83
2022/03/16 02:15:39;;;;;;;23.60;16.27;;;7.00;99.90;;;;;;6083264;23;20012;-83
2022/03/16 02:18:05;;;;;;;21.48;14.38;;;6.90;99.90;;;;;;6158234;23;20328;-83
2022/03/16 02:20:31;;;;;;;25.17;16.35;;;6.90;99.90;;;;;;6157633;23;20049;-84
2022/03/16 02:22:59;;;;;;;24.33;15.15;;;6.90;99.90;;;;;;6158108;23;20081;-84
2022/03/16 02:25:28;;;;;;;25.60;16.48;;;6.90;99.90;;;;;;6139350;23;19997;-84
2022/03/16 02:27:54;;;;;;;22.27;15.55;;;6.90;99.90;;;;;;6144899;23;20021;-83
2022/03/16 02:30:21;;;;;;;24.50;16.50;;;6.80;99.90;;;;;;6147023;23;20057;-83
2022/03/16 02:32:47;;;;;;;25.50;16.15;;;6.80;99.90;;;;;;6118744;23;20006;-83
2022/03/16 02:35:13;;;;;;;22.35;16.40;;;6.80;99.90;;;;;;6167753;23;20306;-83
2022/03/16 02:37:39;;;;;;;25.42;16.73;;;6.80;99.90;;;;;;6166953;23;20065;-83
2022/03/16 02:40:07;;;;;;;24.15;17.05;;;6.80;99.90;;;;;;6135442;23;20009;-83
2022/03/16 02:42:33;;;;;;;23.17;16.90;;;6.80;99.90;;;;;;6131290;23;20033;-84
2022/03/16 02:44:59;;;;;;;26.02;17.88;;;6.80;99.90;;;;;;6131364;23;20320;-83
2022/03/16 02:47:24;;;;;;;25.98;16.65;;;6.80;99.90;;;;;;6082816;23;20122;-83
2022/03/16 02:49:51;;;;;;;26.63;17.88;;;6.70;99.90;;;;;;6131325;23;20029;-83
2022/03/16 02:52:17;;;;;;;24.08;16.75;;;6.70;99.90;;;;;;6131388;23;20096;-83
2022/03/16 02:54:43;;;;;;;26.75;16.67;;;6.70;99.90;;;;;;6155751;23;20072;-83
2022/03/16 02:57:09;;;;;;;23.85;17.27;;;6.70;99.90;;;;;;6131427;23;20018;-83
2022/03/16 02:59:36;;;;;;;26.33;17.15;;;6.70;99.90;;;;;;6130828;23;20018;-83
2022/03/16 03:02:02;;;;;;;26.73;17.95;;;6.70;99.90;;;;;;6107012;23;20005;-83
2022/03/16 03:04:27;;;;;;;26.77;18.85;;;6.70;99.90;;;;;;6130727;23;20021;-84
2022/03/16 03:06:53;;;;;;;26.42;19.20;;;6.70;99.90;;;;;;6157169;23;20013;-83
2022/03/16 03:09:19;;;;;;;24.65;18.23;;;6.70;99.90;;;;;;6157393;23;20337;-83
2022/03/16 03:11:44;;;;;;;27.80;19.05;;;6.70;99.90;;;;;;6106104;23;20033;-83
2022/03/16 03:14:10;;;;;;;27.42;19.92;;;6.70;99.90;;;;;;6131049;23;20013;-83
2022/03/16 03:16:36;;;;;;;25.75;18.48;;;6.60;99.90;;;;;;6082373;23;20336;-86
2022/03/16 03:19:01;;;;;;;30.27;20.58;;;6.60;99.90;;;;;;6106777;23;20388;-84
2022/03/16 03:21:27;;;;;;;33.47;20.55;;;6.60;99.90;;;;;;6131454;23;20112;-83
2022/03/16 03:23:53;;;;;;;31.42;22.48;;;6.60;99.90;;;;;;6106130;23;20436;-83
2022/03/16 03:26:18;;;;;;;33.25;21.90;;;6.60;99.90;;;;;;6106617;23;20006;-83
2022/03/16 03:28:44;;;;;;;33.28;24.05;;;6.60;99.90;;;;;;6131069;23;20010;-84
2022/03/16 03:31:10;;;;;;;33.17;22.77;;;6.60;99.90;;;;;;6106706;23;20010;-84
2022/03/16 03:33:35;;;;;;;29.73;21.63;;;6.60;99.90;;;;;;6106617;23;20037;-83
2022/03/16 03:36:01;;;;;;;33.95;22.17;;;6.60;99.90;;;;;;6129485;23;20037;-84
2022/03/16 03:38:26;;;;;;;32.03;22.90;;;6.60;99.90;;;;;;6130736;23;20385;-84
2022/03/16 03:40:55;;;;;;;29.23;21.60;;;6.60;99.90;;;;;;6106467;23;20082;-83
2022/03/16 03:43:20;;;;;;;35.85;24.10;;;6.60;99.90;;;;;;6130741;23;20012;-83
2022/03/16 03:45:46;;;;;;;30.48;21.88;;;6.50;99.90;;;;;;6082349;23;20041;-84
2022/03/16 03:48:12;;;;;;;31.58;21.77;;;6.60;99.90;;;;;;6130565;23;20001;-83
2022/03/16 03:50:37;;;;;;;32.13;22.55;;;6.50;99.90;;;;;;6156871;23;20008;-84
2022/03/16 03:53:03;;;;;;;33.10;22.40;;;6.50;99.90;;;;;;6156552;23;20052;-83
2022/03/16 03:55:29;;;;;;;34.35;22.65;;;6.40;99.90;;;;;;6106720;23;20063;-84
2022/03/16 03:57:57;;;;;;;37.75;22.70;;;6.50;99.90;;;;;;6106057;23;20514;-83
2022/03/16 04:00:23;;;;;;;32.92;22.42;;;6.40;99.90;;;;;;6157041;23;20001;-83
2022/03/16 04:02:50;;;;;;;31.52;22.10;;;6.40;99.90;;;;;;6130671;23;20437;-83
2022/03/16 04:05:17;;;;;;;32.95;22.98;;;6.40;99.90;;;;;;6130341;23;20059;-83
2022/03/16 04:07:42;;;;;;;34.42;23.73;;;6.40;99.90;;;;;;6130368;23;20073;-84
2022/03/16 04:10:09;;;;;;;31.58;22.58;;;6.40;99.90;;;;;;6130869;23;20005;-83
2022/03/16 04:12:35;;;;;;;32.00;23.00;;;6.40;99.90;;;;;;6130580;23;20009;-83
2022/03/16 04:15:00;;;;;;;33.22;23.27;;;6.40;99.90;;;;;;6106250;23;20006;-83
2022/03/16 04:17:26;;;;;;;34.00;24.27;;;6.30;99.90;;;;;;6130326;23;20002;-83
2022/03/16 04:19:51;;;;;;;32.78;23.17;;;6.30;99.90;;;;;;6156352;23;20001;-83
2022/03/16 04:22:17;;;;;;;35.72;24.02;;;6.30;99.90;;;;;;6130537;23;20062;-84
2022/03/16 04:24:43;;;;;;;34.97;23.27;;;6.30;99.90;;;;;;6105712;23;20006;-83
2022/03/16 04:27:08;;;;;;;33.00;24.05;;;6.20;99.90;;;;;;6130448;23;20447;-83
2022/03/16 04:29:34;;;;;;;38.60;24.52;;;6.20;99.90;;;;;;6105849;23;20005;-84
2022/03/16 04:31:59;;;;;;;33.40;23.30;;;6.20;99.90;;;;;;6130424;23;20357;-83
2022/03/16 04:34:25;;;;;;;31.40;23.75;;;6.20;99.90;;;;;;6130619;23;20012;-83
2022/03/16 04:36:51;;;;;;;36.50;24.40;;;6.20;99.90;;;;;;6129639;23;20037;-83
2022/03/16 04:39:16;;;;;;;35.08;23.90;;;6.20;99.90;;;;;;6105898;23;20421;-83
2022/03/16 04:41:42;;;;;;;34.03;22.63;;;6.10;99.90;;;;;;6130360;23;20453;-83
2022/03/16 04:44:09;;;;;;;34.22;22.73;;;6.10;99.90;;;;;;6130097;23;20064;-83
2022/03/16 04:46:34;;;;;;;35.00;23.35;;;6.10;99.90;;;;;;6130173;23;20049;-83
2022/03/16 04:49:00;;;;;;;32.50;23.25;;;6.10;99.90;;;;;;6130434;23;20444;-83
2022/03/16 04:51:26;;;;;;;32.35;23.25;;;6.10;99.90;;;;;;6106060;23;20439;-83
2022/03/16 04:53:52;;;;;;;34.22;24.40;;;6.00;99.90;;;;;;6130156;23;20029;-83
2022/03/16 04:56:17;;;;;;;32.10;22.83;;;6.00;99.90;;;;;;6106008;23;20006;-83
2022/03/16 04:58:43;;;;;;;36.70;25.60;;;6.00;99.90;;;;;;6131117;23;20010;-83
2022/03/16 05:01:09;;;;;;;36.13;22.70;;;6.00;99.90;;;;;;6130518;23;20379;-83
2022/03/16 05:03:34;;;;;;;36.28;23.45;;;6.00;99.90;;;;;;6130924;23;20017;-84
2022/03/16 05:06:00;;;;;;;34.08;21.90;;;6.00;99.90;;;;;;6082813;23;20031;-83
2022/03/16 05:08:26;;;;;;;35.25;24.33;;;6.00;99.90;;;;;;6162917;23;20065;-83
2022/03/16 05:10:52;;;;;;;34.40;23.20;;;5.90;99.90;;;;;;6086448;23;20088;-83
2022/03/16 05:13:17;;;;;;;32.65;21.75;;;6.00;99.90;;;;;;6106515;23;20049;-82
2022/03/16 05:15:43;;;;;;;32.15;21.10;;;5.90;99.90;;;;;;6129995;23;20425;-83
2022/03/16 05:18:09;;;;;;;32.17;21.85;;;5.90;99.90;;;;;;6105605;23;20318;-83
2022/03/16 05:20:34;;;;;;;32.55;22.42;;;5.90;99.90;;;;;;6154530;23;20025;-83
2022/03/16 05:23:00;;;;;;;33.22;22.33;;;5.90;99.90;;;;;;6154879;23;20105;-83
2022/03/16 05:25:30;;;;;;;34.50;21.95;;;5.90;99.90;;;;;;6130880;23;20028;-83
2022/03/16 05:27:56;;;;;;;31.60;21.80;;;5.80;99.90;;;;;;6131610;23;20010;-85
2022/03/16 05:30:23;;;;;;;32.83;21.40;;;5.80;99.90;;;;;;6150060;23;19989;-85
2022/03/16 05:32:53;;;;;;;32.63;22.38;;;5.80;99.90;;;;;;6183277;23;20005;-83
2022/03/16 05:35:19;;;;;;;30.17;20.95;;;5.80;99.90;;;;;;6133437;23;19982;-82
2022/03/16 05:37:44;;;;;;;31.88;22.40;;;5.80;99.90;;;;;;6157520;23;20001;-84
2022/03/16 05:40:11;;;;;;;31.63;20.90;;;5.80;99.90;;;;;;6182081;23;19981;-83
2022/03/16 05:42:36;;;;;;;33.90;22.00;;;5.80;99.90;;;;;;6157472;23;20029;-84
2022/03/16 05:45:04;;;;;;;34.13;22.50;;;5.80;99.90;;;;;;6179321;23;19998;-83
2022/03/16 05:47:29;;;;;;;33.05;20.02;;;5.80;99.90;;;;;;6150562;23;20065;-83
2022/03/16 05:49:55;;;;;;;32.63;21.02;;;5.80;99.90;;;;;;6170879;23;19998;-84
2022/03/16 05:52:23;;;;;;;30.63;20.75;;;5.70;99.90;;;;;;6180440;23;20004;-82
2022/03/16 05:54:54;;;;;;;32.75;22.25;;;5.70;99.90;;;;;;6127705;23;20009;-83
2022/03/16 05:57:21;;;;;;;35.45;21.75;;;5.70;99.90;;;;;;6154069;23;20000;-83
2022/03/16 05:59:47;;;;;;;33.17;20.98;;;5.70;99.90;;;;;;6146038;23;20014;-83
2022/03/16 06:02:13;;;;;;;33.78;21.63;;;5.70;99.90;;;;;;6112718;23;20084;-82
2022/03/16 06:04:40;;;;;;;31.75;21.88;;;5.70;99.90;;;;;;6108247;23;20314;-83
2022/03/16 06:07:06;;;;;;;33.63;21.70;;;5.70;99.90;;;;;;6158044;23;20073;-83
2022/03/16 06:09:33;;;;;;;32.83;22.98;;;5.70;99.90;;;;;;6131546;23;20506;-82
2022/03/16 06:11:59;;;;;;;40.58;24.48;;;5.70;99.90;;;;;;6083329;23;20009;-83
2022/03/16 06:14:25;;;;;;;36.60;22.88;;;5.70;99.90;;;;;;6158009;23;20007;-82
2022/03/16 06:16:52;;;;;;;36.63;23.55;;;5.70;99.90;;;;;;6157581;23;20081;-82
2022/03/16 06:19:18;;;;;;;34.75;23.95;;;5.60;99.90;;;;;;6107768;23;20010;-82
2022/03/16 06:21:44;;;;;;;39.40;23.88;;;5.60;99.90;;;;;;6131814;23;20128;-84
2022/03/16 06:24:11;;;;;;;37.03;24.00;;;5.60;99.90;;;;;;6107199;23;20050;-85
2022/03/16 06:26:37;;;;;;;41.47;24.40;;;5.60;99.90;;;;;;6107635;23;20029;-85
2022/03/16 06:29:03;;;;;;;39.45;25.90;;;5.60;99.90;;;;;;6083028;23;20009;-85
2022/03/16 06:31:29;;;;;;;39.17;24.88;;;5.60;99.90;;;;;;6107631;23;20061;-85
2022/03/16 06:33:54;;;;;;;39.03;25.33;;;5.60;99.90;;;;;;6132001;23;20381;-85
2022/03/16 06:36:20;;;;;;;36.90;25.02;;;5.60;99.90;;;;;;6157735;23;20005;-85
2022/03/16 06:38:46;;;;;;;39.17;25.75;;;5.60;99.90;;;;;;6131517;23;20052;-85
2022/03/16 06:41:11;;;;;;;38.92;25.23;;;5.60;99.90;;;;;;6106737;23;20029;-85
2022/03/16 06:43:38;;;;;;;41.75;25.55;;;5.60;99.90;;;;;;6107267;23;20309;-84
2022/03/16 06:46:04;;;;;;;38.78;26.63;;;5.60;99.90;;;;;;6106589;23;20009;-85
2022/03/16 06:48:29;;;;;;;37.47;25.48;;;5.60;99.90;;;;;;6131878;23;20005;-85
2022/03/16 06:50:55;;;;;;;38.83;26.63;;;5.60;99.90;;;;;;6131671;23;20314;-85
2022/03/16 06:53:21;;;;;;;41.20;27.85;;;5.60;99.90;;;;;;6106779;23;20112;-84
2022/03/16 06:55:47;;;;;;;45.03;28.02;;;5.60;99.90;;;;;;6157817;23;19997;-84
2022/03/16 06:58:12;;;;;;;41.17;27.83;;;5.70;99.90;;;;;;6130833;23;20014;-85
2022/03/16 07:00:38;;;;;;;49.53;30.08;;;5.60;99.90;;;;;;6082757;23;20314;-85
2022/03/16 07:03:05;;;;;;;51.67;29.35;;;5.70;99.90;;;;;;6106713;23;20002;-86
2022/03/16 07:05:36;;;;;;;45.33;28.20;;;5.70;99.90;;;;;;6082988;23;20042;-85
2022/03/16 07:08:07;;;;;;;43.70;28.40;;;5.70;99.90;;;;;;6131916;23;20008;-85
2022/03/16 07:10:34;;;;;;;43.25;28.05;;;5.80;99.90;;;;;;6107274;23;20006;-85
2022/03/16 07:13:01;;;;;;;45.30;29.60;;;5.80;99.90;;;;;;6156440;23;20001;-85
2022/03/16 07:15:27;;;;;;;50.10;32.20;;;5.80;99.90;;;;;;6107873;23;20096;-85
2022/03/16 07:17:53;;;;;;;43.28;30.80;;;5.90;99.90;;;;;;6157794;23;20005;-84
2022/03/16 07:20:18;;;;;;;45.67;29.63;;;5.90;99.90;;;;;;6130818;23;20030;-85
2022/03/16 07:22:44;;;;;;;47.45;32.33;;;5.90;99.90;;;;;;6107104;23;20090;-85
2022/03/16 07:25:11;;;;;;;48.67;30.35;;;5.90;99.90;;;;;;6131406;23;20388;-85
2022/03/16 07:27:38;;;;;;;45.00;30.17;;;6.00;99.90;;;;;;6157442;23;20002;-85
2022/03/16 07:30:06;;;;;;;44.25;29.00;;;6.00;99.90;;;;;;6157315;23;19997;-85
2022/03/16 07:32:32;;;;;;;42.72;28.17;;;6.10;99.90;;;;;;6106683;23;20002;-84
2022/03/16 07:34:58;;;;;;;39.35;28.02;;;6.20;99.90;;;;;;6106505;23;20005;-84
2022/03/16 07:37:24;;;;;;;41.45;28.52;;;6.20;99.90;;;;;;6131064;23;20053;-85
2022/03/16 07:39:49;;;;;;;40.22;27.35;;;6.30;99.90;;;;;;6105695;23;20022;-85
2022/03/16 07:42:15;;;;;;;40.60;26.60;;;6.30;99.90;;;;;;6131116;23;20096;-86
2022/03/16 07:44:41;;;;;;;36.88;25.02;;;6.40;99.90;;;;;;6155234;23;20320;-86
2022/03/16 07:47:07;;;;;;;38.47;25.13;;;6.40;99.90;;;;;;6106781;23;20017;-85
2022/03/16 07:49:34;;;;;;;36.35;24.20;;;6.50;99.90;;;;;;6132890;23;20017;-87
2022/03/16 07:51:59;;;;;;;31.67;22.83;;;6.50;99.90;;;;;;6157366;23;20057;-87
2022/03/16 07:54:25;;;;;;;31.30;21.75;;;6.60;99.90;;;;;;6132228;23;20011;-86
2022/03/16 07:56:52;;;;;;;36.00;23.52;;;6.60;99.90;;;;;;6130341;23;20002;-86
2022/03/16 07:59:18;;;;;;;37.58;23.38;;;6.70;99.90;;;;;;6131272;23;20447;-86
2022/03/16 08:01:44;;;;;;;32.13;21.23;;;6.70;99.90;;;;;;6130515;23;20002;-86
2022/03/16 08:04:10;;;;;;;33.08;21.17;;;6.80;99.90;;;;;;6105579;23;20020;-87
2022/03/16 08:06:36;;;;;;;29.35;21.17;;;6.90;99.90;;;;;;6180267;23;20006;-86
2022/03/16 08:09:02;;;;;;;28.40;21.20;;;7.00;99.90;;;;;;6106351;23;20006;-85
2022/03/16 08:11:27;;;;;;;30.88;20.25;;;7.00;99.90;;;;;;6105578;23;20032;-86
2022/03/16 08:13:53;;;;;;;28.75;19.98;;;7.10;99.90;;;;;;6153391;23;20372;-87
2022/03/16 08:16:18;;;;;;;26.27;19.25;;;7.20;99.90;;;;;;6081087;23;20009;-86
2022/03/16 08:18:44;;;;;;;34.25;18.40;;;7.30;99.90;;;;;;6130488;23;20070;-87
2022/03/16 08:21:11;;;;;;;23.27;17.27;;;7.40;99.90;;;;;;6105839;23;20028;-87
2022/03/16 08:23:38;;;;;;;22.95;16.27;;;7.40;99.90;;;;;;6130480;23;20005;-86
2022/03/16 08:26:06;;;;;;;22.85;15.85;;;7.50;99.90;;;;;;6157105;23;20455;-86
2022/03/16 08:28:32;;;;;;;22.48;14.93;;;7.60;99.90;;;;;;6155124;23;20017;-87
2022/03/16 08:30:58;;;;;;;21.58;14.20;;;7.70;99.90;;;;;;6154582;23;20027;-86
2022/03/16 08:33:25;;;;;;;24.63;14.15;;;7.80;99.90;;;;;;6156047;23;20006;-85
2022/03/16 08:35:54;;;;;;;21.58;13.50;;;7.90;99.90;;;;;;6130453;23;20005;-86
2022/03/16 08:38:20;;;;;;;20.25;13.85;;;8.00;99.90;;;;;;6131437;23;20010;-87
2022/03/16 08:40:46;;;;;;;23.50;14.95;;;8.10;99.90;;;;;;6130130;23;20381;-87
2022/03/16 08:43:12;;;;;;;20.58;13.60;;;8.20;99.90;;;;;;6155407;23;20016;-87
2022/03/16 08:45:39;;;;;;;17.90;11.80;;;8.20;99.90;;;;;;6130149;23;20400;-86
2022/03/16 08:48:05;;;;;;;17.40;11.30;;;8.30;99.90;;;;;;6130658;23;20109;-86
2022/03/16 08:50:31;;;;;;;18.80;11.48;;;8.40;99.90;;;;;;6130015;23;19998;-86
2022/03/16 08:52:57;;;;;;;17.50;11.25;;;8.40;99.90;;;;;;6081887;23;20006;-85
2022/03/16 08:55:23;;;;;;;15.80;10.85;;;8.50;99.90;;;;;;6105699;23;20013;-86
2022/03/16 08:57:49;;;;;;;17.48;11.73;;;8.60;99.90;;;;;;6157692;23;20002;-86
2022/03/16 09:00:15;;;;;;;17.38;10.88;;;8.70;99.90;;;;;;6156588;23;20297;-85
2022/03/16 09:02:44;;;;;;;17.13;11.48;;;8.80;99.90;;;;;;6106708;23;20001;-86
2022/03/16 09:05:10;;;;;;;17.08;11.60;;;8.90;99.90;;;;;;6129982;23;20021;-85
2022/03/16 09:07:38;;;;;;;19.73;11.63;;;9.00;99.90;;;;;;6157761;23;20468;-86
2022/03/16 09:10:04;;;;;;;18.67;11.57;;;9.00;99.90;;;;;;6142725;23;20012;-85
2022/03/16 09:12:30;;;;;;;19.05;10.98;;;9.10;99.90;;;;;;6156054;23;20037;-87
2022/03/16 09:14:55;;;;;;;16.25;10.73;;;9.20;99.90;;;;;;6132266;23;19994;-87
2022/03/16 09:17:21;;;;;;;16.90;11.30;;;9.20;99.90;;;;;;6157829;23;19990;-90
2022/03/16 09:19:48;;;;;;;16.55;11.30;;;9.30;99.90;;;;;;6157566;23;20009;-89
2022/03/16 09:22:14;;;;;;;16.60;11.43;;;9.40;99.90;;;;;;6133461;23;20002;-87
2022/03/16 09:24:39;;;;;;;16.15;11.45;;;9.50;99.90;;;;;;6109071;23;20036;-85
2022/03/16 09:27:06;;;;;;;15.93;11.18;;;9.60;99.90;;;;;;6106251;23;20025;-86
2022/03/16 09:29:32;;;;;;;16.58;11.13;;;9.60;99.90;;;;;;6143534;23;20005;-88
2022/03/16 09:31:58;;;;;;;15.93;11.13;;;9.70;99.90;;;;;;6109593;23;20016;-85
2022/03/16 09:34:23;;;;;;;18.73;11.30;;;9.80;99.90;;;;;;6133161;23;20001;-85
2022/03/16 09:36:52;;;;;;;18.30;12.90;;;9.90;99.90;;;;;;6131630;23;19998;-86
2022/03/16 09:39:18;;;;;;;18.40;11.60;;;9.90;99.90;;;;;;6105889;23;20201;-87
2022/03/16 09:41:44;;;;;;;17.02;11.65;;;10.00;99.90;;;;;;6130522;23;20005;-85
2022/03/16 09:44:10;;;;;;;15.98;11.13;;;10.10;99.90;;;;;;6131120;23;20002;-86
2022/03/16 09:46:37;;;;;;;19.00;11.18;;;10.10;99.90;;;;;;6130234;23;20016;-86
2022/03/16 09:49:07;;;;;;;16.98;10.80;;;10.20;99.90;;;;;;6130230;23;20002;-86
2022/03/16 09:51:38;;;;;;;15.52;11.40;;;10.30;99.90;;;;;;6130588;23;20431;-85
2022/03/16 09:54:05;;;;;;;16.85;10.85;;;10.40;99.90;;;;;;6106934;23;20033;-85
2022/03/16 09:56:32;;;;;;;16.77;11.43;;;10.50;99.90;;;;;;6155749;23;20079;-86
2022/03/16 09:58:58;;;;;;;16.27;11.75;;;10.60;99.90;;;;;;6130832;23;20420;-86
2022/03/16 10:01:24;;;;;;;17.95;10.57;;;10.70;99.90;;;;;;6130000;23;20010;-86
2022/03/16 10:03:51;;;;;;;14.82;11.10;;;10.80;99.90;;;;;;6132693;23;20013;-85
2022/03/16 10:06:18;;;;;;;15.35;10.82;;;10.90;99.90;;;;;;6155852;23;20062;-85
2022/03/16 10:13:13;;;;;;;15.60;11.23;;;11.00;99.90;;;;;;6130013;23;20021;-86
2022/03/16 10:14:16;;;;;;;15.15;11.20;;;11.20;99.10;;;;;;6112934;23;20016;-86
2022/03/16 10:19:50;;;;;;;14.20;10.38;;;11.50;98.90;;;;;;6156367;23;20347;-87
2022/03/16 10:22:30;;;;;;;14.45;11.07;;;11.60;99.20;;;;;;6129989;23;20001;-86
2022/03/16 10:25:03;;;;;;;15.95;10.68;;;11.80;99.40;;;;;;6129849;23;20056;-87
2022/03/16 10:27:30;;;;;;;15.00;10.60;;;11.90;99.10;;;;;;6129239;23;20002;-87
2022/03/16 10:29:56;;;;;;;15.98;10.55;;;12.00;98.20;;;;;;6105415;23;20016;-87
2022/03/16 10:32:22;;;;;;;14.73;10.25;;;12.10;98.70;;;;;;6155523;23;19997;-87
2022/03/16 10:34:55;;;;;;;13.32;10.10;;;12.30;98.00;;;;;;6155992;23;20006;-87
2022/03/16 10:37:24;;;;;;;16.10;10.15;;;12.40;97.90;;;;;;6083507;23;20309;-85
2022/03/16 10:39:51;;;;;;;12.30;9.95;;;12.50;95.50;;;;;;6130989;23;20037;-85
2022/03/16 10:48:19;;;;;;;11.43;8.68;;;12.90;93.50;;;;;;6157275;23;20510;-82
2022/03/16 10:50:47;;;;;;;13.40;8.57;;;13.10;92.80;;;;;;6106637;23;20012;-83
2022/03/16 10:53:15;;;;;;;13.35;9.20;;;13.20;92.00;;;;;;6131110;23;20006;-82
2022/03/16 10:55:43;;;;;;;12.18;8.80;;;13.30;91.70;;;;;;6131025;23;20013;-84
2022/03/16 10:58:10;;;;;;;10.25;8.23;;;13.40;92.50;;;;;;6130575;23;20092;-84
2022/03/16 11:00:38;;;;;;;11.43;8.20;;;13.50;91.70;;;;;;6106910;23;20463;-84
2022/03/16 11:03:15;;;;;;;14.18;8.63;;;13.60;90.70;;;;;;6082546;23;20487;-83
2022/03/16 11:05:42;;;;;;;10.65;8.35;;;13.70;90.60;;;;;;6130442;23;20014;-83
2022/03/16 11:08:09;;;;;;;12.13;8.00;;;13.80;90.10;;;;;;6131119;23;20032;-83
2022/03/16 11:10:41;;;;;;;10.85;8.35;;;14.00;89.20;;;;;;6156981;23;19998;-83
2022/03/16 11:15:53;;;;;;;13.40;8.32;;;14.20;87.60;;;;;;6134942;23;20017;-83
2022/03/16 11:18:20;;;;;;;10.77;8.55;;;14.30;87.50;;;;;;6130944;23;20428;-83
2022/03/16 11:20:56;;;;;;;11.55;7.85;;;14.40;86.50;;;;;;6130665;23;19998;-84
2022/03/16 11:27:03;;;;;;;9.77;8.00;;;14.60;82.70;;;;;;6095715;23;20024;-84
2022/03/16 11:30:07;;;;;;;11.27;7.68;;;14.70;85.00;;;;;;6125811;23;20096;-84
2022/03/16 11:32:41;;;;;;;9.65;7.43;;;14.80;81.70;;;;;;6130454;23;20002;-85
2022/03/16 11:35:12;;;;;;;11.90;7.93;;;14.90;81.60;;;;;;6139526;23;20005;-84
2022/03/16 11:37:46;;;;;;;9.40;7.18;;;15.00;81.40;;;;;;6144716;23;20016;-83
2022/03/16 11:40:23;;;;;;;9.90;7.82;;;15.10;79.80;;;;;;6131038;23;20038;-81
2022/03/16 11:43:13;;;;;;;8.73;7.00;;;15.30;80.80;;;;;;6130627;23;20017;-83
2022/03/16 11:45:57;;;;;;;13.03;6.93;;;15.40;79.60;;;;;;6130837;23;20462;-84
2022/03/16 11:48:31;;;;;;;9.48;6.60;;;15.40;76.10;;;;;;6130980;23;20009;-83
2022/03/16 11:51:08;;;;;;;15.52;7.47;;;15.50;75.70;;;;;;6130474;23;20446;-82
2022/03/16 11:53:57;;;;;;;9.00;7.05;;;15.40;75.40;;;;;;6156083;23;20069;-84
2022/03/16 11:56:29;;;;;;;14.73;7.43;;;15.60;76.60;;;;;;6132984;23;20328;-84
2022/03/16 11:59:05;;;;;;;8.57;7.00;;;15.50;75.20;;;;;;6130540;23;20431;-83
2022/03/16 12:01:42;;;;;;;10.40;7.05;;;15.60;75.30;;;;;;6157878;23;20009;-84
2022/03/16 12:04:15;;;;;;;11.32;7.30;;;15.70;73.60;;;;;;6106587;23;20022;-85
2022/03/16 12:06:54;;;;;;;9.40;7.50;;;15.70;73.90;;;;;;6131025;23;20012;-84
2022/03/16 12:09:39;;;;;;;9.85;7.47;;;15.70;73.70;;;;;;6130904;23;20048;-85
2022/03/16 12:15:37;;;;;;;12.68;7.70;;;15.70;73.70;;;;;;6156232;23;20369;-84
2022/03/16 12:18:07;;;;;;;11.20;7.40;;;15.60;74.30;;;;;;6156818;23;20436;-84
2022/03/16 12:20:54;;;;;;;10.75;7.68;;;15.60;74.00;;;;;;6156354;23;20002;-83
2022/03/16 12:23:45;;;;;;;9.25;6.55;;;15.60;73.20;;;;;;6130974;23;20002;-84
2022/03/16 12:26:12;;;;;;;9.70;7.20;;;15.60;73.20;;;;;;6156797;23;20053;-85
2022/03/16 12:28:55;;;;;;;9.30;7.28;;;15.60;74.30;;;;;;6130620;23;20012;-85
2022/03/16 12:31:21;;;;;;;10.45;8.00;;;15.70;73.40;;;;;;6130825;23;20450;-85
2022/03/16 12:33:53;;;;;;;10.27;7.53;;;15.80;73.70;;;;;;6130878;23;20001;-85
2022/03/16 12:36:23;;;;;;;9.32;7.40;;;15.80;74.90;;;;;;6157834;23;20001;-84
2022/03/16 12:38:51;;;;;;;9.38;7.82;;;15.80;73.30;;;;;;6138195;23;20045;-85
2022/03/16 12:44:06;;;;;;;9.40;7.28;;;16.00;73.30;;;;;;6179131;23;20020;-86
2022/03/16 12:46:47;;;;;;;9.95;8.10;;;16.10;73.60;;;;;;6143663;23;20463;-84
2022/03/16 12:49:18;;;;;;;9.38;7.47;;;16.10;73.20;;;;;;6140033;23;20028;-84
2022/03/16 12:51:47;;;;;;;;;;;16.20;72.20;;;;;;6155752;23;20053;-87
2022/03/16 12:54:26;;;;;;;8.70;7.25;;;16.20;72.70;;;;;;6177256;23;19948;-86
2022/03/16 12:57:05;;;;;;;10.88;7.85;;;16.20;71.60;;;;;;6154142;23;19992;-89
2022/03/16 12:59:36;;;;;;;9.82;7.38;;;16.20;73.20;;;;;;6155224;23;20018;-86
2022/03/16 13:02:06;;;;;;;10.13;7.35;;;16.20;72.20;;;;;;6181920;23;20073;-85
2022/03/16 13:04:32;;;;;;;8.60;7.23;;;16.20;71.20;;;;;;6155533;23;20017;-85